Time;durP1;ratioP1;P1;durP2;ratioP2;P2;SDS_P1;SDS_P2;PMS_P1;PMS_P2;Temp;Humidity;BMP_temperature;BMP_pressure;BME280_temperature;BME280_humidity;BME280_pressure;Samples;Min_cycle;Max_cycle;Signal;HPM_P1;HPM_P2
2022/09/11 00:00:26;;;;;;;;;13.00;11.50;;;;;17.47;73.76;101321.66;5014930;28;45344;-67
2022/09/11 00:02:52;;;;;;;;;14.75;13.50;;;;;17.44;73.43;101317.44;5014071;28;46278;-65
2022/09/11 00:05:17;;;;;;;;;13.75;13.75;;;;;17.29;73.67;101292.16;5014543;28;45415;-64
2022/09/11 00:07:43;;;;;;;;;13.25;12.00;;;;;17.39;73.79;101320.09;5014698;28;45725;-65
2022/09/11 00:10:09;;;;;;;;;9.25;8.00;;;;;17.38;73.50;101318.41;5014721;28;45597;-64
2022/09/11 00:12:34;;;;;;;;;15.25;13.00;;;;;17.36;73.44;101308.66;5014522;28;46574;-64
2022/09/11 00:15:00;;;;;;;;;13.25;12.50;;;;;17.29;73.73;101304.06;5014566;28;45395;-64
2022/09/11 00:17:25;;;;;;;;;14.00;10.50;;;;;17.31;73.62;101312.16;5014517;28;45390;-65
2022/09/11 00:19:51;;;;;;;;;14.75;11.25;;;;;17.24;73.84;101301.19;5014876;28;45325;-68
2022/09/11 00:22:16;;;;;;;;;14.75;11.50;;;;;17.29;73.44;101308.78;5016839;28;46241;-67
2022/09/11 00:24:42;;;;;;;;;12.25;12.25;;;;;17.28;73.78;101304.34;5017288;28;45447;-65
2022/09/11 00:27:07;;;;;;;;;12.00;11.25;;;;;17.27;73.71;101300.72;5018417;28;45380;-67
2022/09/11 00:29:32;;;;;;;;;15.00;12.00;;;;;17.18;73.76;101302.19;5018040;28;45474;-66
2022/09/11 00:31:58;;;;;;;;;11.00;11.00;;;;;17.26;73.83;101301.81;5017922;28;45847;-65
2022/09/11 00:34:24;;;;;;;;;12.75;11.50;;;;;17.24;73.94;101301.19;5018076;28;45548;-66
2022/09/11 00:36:50;;;;;;;;;15.00;14.00;;;;;17.19;73.86;101296.38;5018030;28;45407;-63
2022/09/11 00:39:15;;;;;;;;;11.80;11.20;;;;;17.19;74.12;101303.88;5018228;28;45993;-65
2022/09/11 00:41:43;;;;;;;;;14.75;11.75;;;;;16.78;74.59;101259.38;5016508;28;47420;-65
2022/09/11 00:44:16;;;;;;;;;11.00;11.00;;;;;17.13;74.69;101304.84;5016431;28;45515;-65
2022/09/11 00:46:49;;;;;;;;;11.40;11.20;;;;;16.89;74.61;101252.13;5018091;28;45216;-64
2022/09/11 00:49:37;;;;;;;;;13.00;9.00;;;;;17.01;74.60;101296.47;5000872;28;45401;-65
2022/09/11 00:52:09;;;;;;;;;11.60;11.60;;;;;17.09;74.78;101301.69;5001048;28;45683;-65
2022/09/11 00:54:40;;;;;;;;;13.40;11.60;;;;;17.14;74.53;101301.78;5017408;28;45610;-64
2022/09/11 00:57:05;;;;;;;;;15.20;11.20;;;;;17.06;74.61;101280.84;5016642;28;45336;-64
2022/09/11 00:59:31;;;;;;;;;12.75;12.75;;;;;17.17;74.45;101298.56;4999811;28;45686;-67
2022/09/11 01:01:56;;;;;;;;;10.50;10.50;;;;;16.96;74.77;101271.41;5016563;28;46470;-65
2022/09/11 01:04:22;;;;;;;;;12.50;11.75;;;;;17.10;74.68;101296.97;5017483;28;45438;-64
2022/09/11 01:06:50;;;;;;;;;15.50;13.00;;;;;17.12;74.44;101292.88;5016350;28;45449;-65
2022/09/11 01:09:16;;;;;;;;;13.80;11.20;;;;;17.11;74.55;101287.56;5016766;28;45533;-65
2022/09/11 01:11:53;;;;;;;;;10.00;9.75;;;;;17.16;74.36;101282.16;5017140;28;45726;-66
2022/09/11 01:14:35;;;;;;;;;9.40;7.80;;;;;17.15;74.31;101286.88;5017625;28;45316;-65
2022/09/11 01:17:20;;;;;;;;;13.20;11.60;;;;;17.14;74.55;101287.94;5016267;28;45453;-66
2022/09/11 01:19:53;;;;;;;;;16.60;13.80;;;;;17.14;74.48;101289.88;5012492;28;45647;-66
2022/09/11 01:22:46;;;;;;;;;12.20;11.40;;;;;17.13;74.34;101280.69;5017468;28;45685;-66
2022/09/11 01:25:26;;;;;;;;;10.80;10.80;;;;;17.05;74.58;101276.38;5017383;28;45398;-65
2022/09/11 01:27:59;;;;;;;;;12.00;10.00;;;;;17.06;74.37;101280.84;5015704;28;45289;-65
2022/09/11 01:30:34;;;;;;;;;12.80;10.00;;;;;17.03;74.52;101278.53;5000249;28;45643;-66
2022/09/11 01:33:11;;;;;;;;;13.20;13.00;;;;;17.02;74.61;101282.41;4998270;28;45409;-65
2022/09/11 01:35:58;;;;;;;;;13.60;10.80;;;;;17.03;74.29;101273.00;5000685;28;45371;-66
2022/09/11 01:38:36;;;;;;;;;12.00;11.80;;;;;16.97;74.40;101264.78;4997683;28;45419;-65
2022/09/11 01:41:10;;;;;;;;;13.40;12.80;;;;;17.00;74.37;101270.69;5017257;28;45879;-66
2022/09/11 01:43:46;;;;;;;;;15.20;15.20;;;;;17.03;74.48;101278.53;4993991;28;46684;-66
2022/09/11 01:46:12;;;;;;;;;14.80;14.40;;;;;16.90;74.32;101259.34;5000691;28;45967;-64
2022/09/11 01:48:46;;;;;;;;;15.00;11.25;;;;;16.93;74.70;101261.66;4989791;28;45448;-65
2022/09/11 01:51:20;;;;;;;;;12.20;11.80;;;;;16.99;74.51;101271.78;4999721;28;45327;-65
2022/09/11 01:53:46;;;;;;;;;13.00;10.40;;;;;16.96;74.33;101263.09;4986302;28;45898;-67
2022/09/11 01:56:25;;;;;;;;;11.25;11.00;;;;;16.98;74.31;101269.25;4998877;28;45760;-68
2022/09/11 01:58:54;;;;;;;;;11.40;11.40;;;;;16.97;74.22;101268.38;5004512;28;45275;-66
2022/09/11 02:01:22;;;;;;;;;10.80;10.00;;;;;16.69;74.35;101230.34;5016913;28;45473;-64
2022/09/11 02:03:54;;;;;;;;;12.40;11.80;;;;;16.98;74.52;101280.31;4972266;28;46182;-64
2022/09/11 02:06:31;;;;;;;;;11.20;11.20;;;;;16.95;74.71;101276.09;5015353;28;45526;-61
2022/09/11 02:08:59;;;;;;;;;14.40;11.40;;;;;16.94;74.51;101277.19;4996164;28;45485;-63
2022/09/11 02:11:25;;;;;;;;;10.20;9.00;;;;;16.51;74.30;101199.75;5016680;28;45442;-63
2022/09/11 02:13:53;;;;;;;;;15.50;14.00;;;;;16.91;74.64;101261.88;5014951;28;45512;-63
2022/09/11 02:16:50;;;;;;;;;11.60;11.00;;;;;16.91;74.72;101266.56;5016394;28;45447;-62
2022/09/11 02:19:17;;;;;;;;;15.20;13.80;;;;;16.88;74.90;101258.75;5015842;28;45305;-62
2022/09/11 02:21:43;;;;;;;;;13.80;12.80;;;;;16.90;74.84;101262.97;5014559;28;45501;-63
2022/09/11 02:24:09;;;;;;;;;11.50;11.00;;;;;16.90;74.68;101268.53;4998227;28;46707;-63
2022/09/11 02:26:38;;;;;;;;;15.40;11.80;;;;;16.91;74.51;101266.56;4993121;28;45458;-63
2022/09/11 02:29:04;;;;;;;;;12.80;12.80;;;;;16.85;74.45;101254.53;5009804;28;45288;-63
2022/09/11 02:31:29;;;;;;;;;14.75;14.00;;;;;16.88;74.95;101267.94;5016242;28;45465;-63
2022/09/11 02:33:56;;;;;;;;;12.25;11.00;;;;;16.88;74.55;101264.31;5009073;28;45514;-63
2022/09/11 02:36:28;;;;;;;;;14.20;13.00;;;;;16.63;74.96;101229.34;5015806;28;45601;-63
2022/09/11 02:39:11;;;;;;;;;17.40;11.40;;;;;16.80;74.98;101274.66;5031548;28;45351;-63
2022/09/11 02:41:52;;;;;;;;;13.80;11.00;;;;;16.57;75.07;101236.72;5016638;28;45247;-63
2022/09/11 02:44:54;;;;;;;;;12.00;11.00;;;;;16.83;74.84;101269.72;5015568;28;45486;-63
2022/09/11 02:47:34;;;;;;;;;13.40;12.60;;;;;16.84;75.06;101269.50;5011342;28;45402;-63
2022/09/11 02:50:21;;;;;;;;;15.20;11.40;;;;;16.83;75.02;101270.56;5021273;28;45442;-63
2022/09/11 02:52:57;;;;;;;;;11.80;11.80;;;;;16.82;74.70;101268.91;5015729;28;45584;-61
2022/09/11 02:55:30;;;;;;;;;16.80;14.00;;;;;16.79;75.05;101264.66;5015340;28;46536;-62
2022/09/11 02:57:59;;;;;;;;;15.20;11.40;;;;;16.79;75.09;101273.00;5028081;28;45425;-62
2022/09/11 03:00:24;;;;;;;;;17.20;12.40;;;;;16.81;74.79;101269.94;5015780;28;45402;-61
2022/09/11 03:02:52;;;;;;;;;14.25;13.25;;;;;16.42;74.97;101205.88;4998185;28;45320;-61
2022/09/11 03:05:18;;;;;;;;;12.80;11.60;;;;;16.80;74.78;101271.03;5014148;28;47857;-61
2022/09/11 03:07:43;;;;;;;;;17.50;15.00;;;;;16.74;75.02;101258.16;5015223;28;45607;-60
2022/09/11 03:10:10;;;;;;;;;15.00;12.50;;;;;16.75;74.98;101266.22;5014829;28;45367;-61
2022/09/11 03:12:36;;;;;;;;;14.40;13.20;;;;;16.77;74.90;101266.81;5014601;28;45464;-61
2022/09/11 03:15:02;;;;;;;;;16.80;13.20;;;;;16.73;75.00;101256.47;5014900;28;46665;-62
2022/09/11 03:17:28;;;;;;;;;16.50;13.25;;;;;16.75;75.11;101268.19;5015427;28;45205;-61
2022/09/11 03:19:53;;;;;;;;;15.00;14.75;;;;;16.72;75.25;101261.19;5013764;28;45383;-62
2022/09/11 03:22:19;;;;;;;;;14.00;13.00;;;;;16.62;74.95;101238.75;5015557;28;45718;-61
2022/09/11 03:24:44;;;;;;;;;16.50;14.00;;;;;16.76;75.00;101267.09;5013029;28;46412;-61
2022/09/11 03:27:10;;;;;;;;;14.25;13.50;;;;;16.74;74.97;101260.91;5015375;28;45269;-61
2022/09/11 03:29:36;;;;;;;;;13.75;12.50;;;;;16.68;74.91;101254.41;5013820;28;45378;-60
2022/09/11 03:32:02;;;;;;;;;14.60;14.60;;;;;16.58;75.05;101234.75;5013374;28;45537;-61
2022/09/11 03:34:28;;;;;;;;;14.00;12.00;;;;;16.67;74.98;101247.19;5014774;28;46633;-62
2022/09/11 03:36:54;;;;;;;;;13.40;12.00;;;;;16.19;74.85;101174.28;5014669;28;45388;-61
2022/09/11 03:39:19;;;;;;;;;15.00;15.00;;;;;16.73;74.66;101267.56;5014828;28;45573;-61
2022/09/11 03:41:44;;;;;;;;;16.50;15.00;;;;;16.69;74.96;101252.50;5014783;28;45476;-61
2022/09/11 03:44:11;;;;;;;;;13.25;11.00;;;;;16.63;74.99;101249.59;5014591;28;46391;-61
2022/09/11 03:46:37;;;;;;;;;12.00;10.40;;;;;16.68;75.02;101259.97;5014801;28;45433;-61
2022/09/11 03:49:03;;;;;;;;;10.25;10.25;;;;;16.68;74.92;101259.97;5013362;28;45767;-62
2022/09/11 03:51:30;;;;;;;;;11.75;11.75;;;;;16.66;74.93;101262.97;5015151;28;45554;-60
2022/09/11 03:53:57;;;;;;;;;12.80;12.60;;;;;16.66;74.79;101259.38;5014135;28;47026;-61
2022/09/11 03:56:22;;;;;;;;;13.60;11.80;;;;;16.63;74.71;101257.91;5016226;28;45482;-61
2022/09/11 03:58:48;;;;;;;;;15.25;12.75;;;;;16.62;74.74;101261.78;5003137;28;45505;-62
2022/09/11 04:01:14;;;;;;;;;15.00;14.00;;;;;16.60;74.86;101258.38;5002815;28;45399;-62
2022/09/11 04:03:40;;;;;;;;;13.80;12.40;;;;;16.61;74.91;101267.56;5000453;28;45832;-61
2022/09/11 04:06:06;;;;;;;;;15.75;14.50;;;;;16.61;74.96;101260.09;5000129;28;45363;-61
2022/09/11 04:08:32;;;;;;;;;15.25;13.50;;;;;16.61;74.73;101264.78;5001467;28;45495;-61
2022/09/11 04:11:02;;;;;;;;;13.40;13.40;;;;;16.58;74.94;101251.38;4999201;28;45355;-60
2022/09/11 04:13:35;;;;;;;;;21.20;16.20;;;;;16.56;74.90;101257.19;4983820;28;47563;-60
2022/09/11 04:16:05;;;;;;;;;12.00;12.00;;;;;16.57;74.80;101261.66;5001317;28;45301;-62
2022/09/11 04:18:33;;;;;;;;;13.20;11.40;;;;;15.91;74.84;101148.94;5000269;28;45478;-62
2022/09/11 04:21:03;;;;;;;;;14.00;13.20;;;;;16.55;74.71;101263.81;5001175;28;45363;-60
2022/09/11 04:23:29;;;;;;;;;11.80;11.80;;;;;16.20;74.87;101209.22;5001641;28;45650;-62
2022/09/11 04:25:54;;;;;;;;;16.25;14.25;;;;;16.43;74.86;101252.72;4999816;28;45513;-62
2022/09/11 04:28:21;;;;;;;;;17.00;14.00;;;;;16.52;75.19;101267.06;4999823;28;45441;-62
2022/09/11 04:30:46;;;;;;;;;11.40;11.40;;;;;16.52;74.92;101269.81;5001185;28;45359;-62
2022/09/11 04:33:12;;;;;;;;;15.00;13.50;;;;;16.49;74.81;101273.09;5000847;28;46745;-62
2022/09/11 04:35:38;;;;;;;;;14.75;13.75;;;;;16.19;74.97;101230.53;5000927;28;45318;-62
2022/09/11 04:38:04;;;;;;;;;14.40;14.40;;;;;16.44;74.95;101271.00;5001079;28;45280;-62
2022/09/11 04:40:31;;;;;;;;;14.75;13.25;;;;;16.38;75.20;101267.28;5001194;28;45223;-61
2022/09/11 04:42:57;;;;;;;;;14.60;14.00;;;;;16.38;75.08;101264.50;5000900;28;46928;-62
2022/09/11 04:45:22;;;;;;;;;10.50;9.50;;;;;16.40;74.78;101272.59;5000762;28;45403;-62
2022/09/11 04:47:51;;;;;;;;;13.00;11.75;;;;;16.37;74.86;101271.13;4992852;28;45384;-62
2022/09/11 04:50:17;;;;;;;;;14.00;12.00;;;;;16.40;74.90;101269.81;5016025;28;45408;-62
2022/09/11 04:52:46;;;;;;;;;13.50;13.25;;;;;16.39;74.96;101273.69;5019204;28;45695;-62
2022/09/11 04:55:11;;;;;;;;;20.00;17.20;;;;;16.40;74.81;101278.97;5019178;28;45359;-63
2022/09/11 04:57:37;;;;;;;;;13.25;12.75;;;;;16.40;74.85;101278.13;5019624;28;45497;-62
2022/09/11 05:00:04;;;;;;;;;17.00;15.25;;;;;16.38;75.04;101281.13;5020659;28;45457;-62
2022/09/11 05:02:30;;;;;;;;;12.80;11.40;;;;;16.37;74.73;101284.13;5020757;28;46044;-61
2022/09/11 05:04:57;;;;;;;;;14.50;13.25;;;;;16.36;74.76;101282.44;5020592;28;45509;-62
2022/09/11 05:07:24;;;;;;;;;14.20;13.40;;;;;16.37;75.07;101284.13;5018121;28;45331;-62
2022/09/11 05:09:53;;;;;;;;;17.80;15.20;;;;;16.29;75.05;101277.03;5017709;28;45208;-62
2022/09/11 05:12:21;;;;;;;;;14.60;12.00;;;;;16.13;75.09;101253.63;5016968;28;45414;-62
2022/09/11 05:14:47;;;;;;;;;19.00;16.60;;;;;15.61;75.15;101173.88;5017443;28;45514;-62
2022/09/11 05:17:12;;;;;;;;;14.00;12.75;;;;;16.35;74.65;101292.69;5017468;28;45169;-63
2022/09/11 05:19:39;;;;;;;;;14.00;13.00;;;;;16.33;74.84;101300.38;5017123;28;45588;-62
2022/09/11 05:22:05;;;;;;;;;11.80;11.80;;;;;16.33;74.92;101291.25;5016511;28;46541;-61
2022/09/11 05:24:30;;;;;;;;;12.60;11.60;;;;;16.33;74.91;101282.94;5015606;28;45405;-61
2022/09/11 05:26:57;;;;;;;;;18.50;17.25;;;;;16.27;74.91;101290.25;5032280;28;45428;-62
2022/09/11 05:29:25;;;;;;;;;18.80;17.40;;;;;16.20;75.12;101287.59;5014357;28;45858;-62
2022/09/11 05:31:51;;;;;;;;;12.20;11.60;;;;;15.85;75.03;101250.38;5016761;28;45697;-61
2022/09/11 05:34:17;;;;;;;;;15.20;13.80;;;;;15.79;75.81;101247.72;5016500;28;45452;-61
2022/09/11 05:36:43;;;;;;;;;15.50;14.50;;;;;16.07;76.09;101299.69;5015504;28;45383;-61
2022/09/11 05:39:09;;;;;;;;;14.75;13.50;;;;;16.18;75.83;101309.16;5017002;28;45327;-61
2022/09/11 05:41:34;;;;;;;;;13.00;11.80;;;;;16.21;75.56;101310.59;5016338;28;46566;-60
2022/09/11 05:44:00;;;;;;;;;13.75;13.00;;;;;16.27;75.22;101315.19;5016549;28;45287;-61
2022/09/11 05:46:26;;;;;;;;;19.75;14.75;;;;;16.30;75.24;101317.50;5016711;28;45337;-61
2022/09/11 05:48:52;;;;;;;;;17.50;14.50;;;;;16.33;75.02;101318.94;5017038;28;45539;-62
2022/09/11 05:51:19;;;;;;;;;15.75;15.75;;;;;16.33;74.69;101317.00;5016240;28;46796;-65
2022/09/11 05:53:45;;;;;;;;;17.00;14.20;;;;;16.37;74.81;101321.00;5016460;28;45402;-60
2022/09/11 05:56:14;;;;;;;;;14.25;13.75;;;;;16.37;74.83;101318.22;5016482;28;45438;-63
2022/09/11 05:58:40;;;;;;;;;14.20;13.60;;;;;16.38;74.66;101317.13;5016178;28;45564;-61
2022/09/11 06:01:10;;;;;;;;;17.75;17.75;;;;;16.35;74.68;101325.94;5016106;28;45523;-61
2022/09/11 06:03:36;;;;;;;;;16.40;15.60;;;;;16.21;75.35;101322.50;5015000;28;46381;-61
2022/09/11 06:06:02;;;;;;;;;18.00;14.50;;;;;16.20;75.86;101331.06;5016209;28;45375;-61
2022/09/11 06:08:29;;;;;;;;;17.80;16.80;;;;;16.29;75.38;101328.78;5015262;28;45357;-62
2022/09/11 06:10:56;;;;;;;;;18.00;16.60;;;;;16.13;75.08;101296.00;5016137;28;45610;-61
2022/09/11 06:13:23;;;;;;;;;14.00;11.80;;;;;16.40;74.98;101328.81;5014721;28;45458;-61
2022/09/11 06:15:49;;;;;;;;;19.80;16.00;;;;;16.45;74.73;101330.91;5016258;28;45418;-62
2022/09/11 06:18:15;;;;;;;;;23.75;18.75;;;;;16.44;74.59;101323.66;5016047;28;45399;-61
2022/09/11 06:20:40;;;;;;;;;19.75;16.00;;;;;16.48;74.72;101335.97;5015633;28;46117;-61
2022/09/11 06:23:07;;;;;;;;;17.50;15.75;;;;;16.51;74.35;101334.63;5016296;28;45264;-61
2022/09/11 06:25:34;;;;;;;;;12.80;12.80;;;;;16.54;74.11;101336.91;5016295;28;45396;-61
2022/09/11 06:28:00;;;;;;;;;17.80;16.40;;;;;16.56;74.30;101326.47;5016190;28;45324;-61
2022/09/11 06:30:25;;;;;;;;;19.50;15.50;;;;;16.58;74.18;101338.16;5005981;28;46983;-61
2022/09/11 06:32:52;;;;;;;;;21.25;19.75;;;;;16.61;74.36;101337.69;4985621;28;45824;-61
2022/09/11 06:35:17;;;;;;;;;18.60;18.20;;;;;16.46;74.46;101312.34;4993294;28;45547;-61
2022/09/11 06:37:43;;;;;;;;;21.25;19.00;;;;;16.62;74.29;101333.81;4996307;28;45381;-61
2022/09/11 06:40:09;;;;;;;;;17.50;16.75;;;;;16.72;74.19;101338.78;4996243;28;46505;-61
2022/09/11 06:42:35;;;;;;;;;18.80;17.00;;;;;16.72;74.01;101332.38;4996427;28;45320;-60
2022/09/11 06:45:01;;;;;;;;;20.00;18.50;;;;;16.80;73.88;101348.66;4995958;28;45472;-64
2022/09/11 06:47:26;;;;;;;;;21.00;17.80;;;;;16.87;73.47;101346.63;4996633;28;45451;-63
2022/09/11 06:49:52;;;;;;;;;27.50;21.50;;;;;16.84;73.54;101346.25;4995100;28;46433;-62
2022/09/11 06:52:17;;;;;;;;;26.50;22.25;;;;;16.83;73.64;101341.78;4995945;28;45359;-62
2022/09/11 06:54:43;;;;;;;;;23.50;21.00;;;;;16.82;73.73;101346.50;4996051;28;45424;-63
2022/09/11 06:57:08;;;;;;;;;25.00;24.25;;;;;16.78;73.68;101336.97;5006896;28;45372;-63
2022/09/11 06:59:34;;;;;;;;;23.00;23.00;;;;;16.83;74.07;101339.88;4996388;28;46016;-62
2022/09/11 07:01:59;;;;;;;;;23.25;21.75;;;;;16.85;73.80;101336.88;4995503;28;45237;-62
2022/09/11 07:04:25;;;;;;;;;23.25;22.25;;;;;16.65;74.05;101299.25;4996024;28;45379;-60
2022/09/11 07:06:50;;;;;;;;;26.00;22.25;;;;;16.71;74.23;101303.00;4994789;28;45253;-63
2022/09/11 07:09:16;;;;;;;;;22.25;22.00;;;;;16.88;74.07;101340.00;4995626;28;45749;-63
2022/09/11 07:11:43;;;;;;;;;25.00;21.00;;;;;16.91;74.33;101335.88;4995684;28;45307;-62
2022/09/11 07:14:09;;;;;;;;;25.40;23.40;;;;;17.02;74.19;101337.03;4996011;28;45415;-61
2022/09/11 07:16:35;;;;;;;;;24.00;21.75;;;;;17.07;74.01;101337.13;4995966;28;45462;-61
2022/09/11 07:19:02;;;;;;;;;19.75;19.75;;;;;16.85;74.11;101301.66;4977182;28;45494;-54
2022/09/11 07:21:28;;;;;;;;;22.60;21.80;;;;;17.07;74.06;101331.59;4995041;28;45308;-59
2022/09/11 07:23:55;;;;;;;;;23.25;23.25;;;;;17.09;74.03;101337.75;4955294;28;45567;-58
2022/09/11 07:26:21;;;;;;;;;23.60;23.60;;;;;17.12;74.77;101347.53;4975933;28;45848;-55
2022/09/11 07:28:49;;;;;;;;;29.20;26.40;;;;;16.94;73.92;101308.56;4993986;28;46127;-56
2022/09/11 07:31:19;;;;;;;;;25.00;22.60;;;;;16.82;74.28;101298.53;4992169;28;45405;-56
2022/09/11 07:33:46;;;;;;;;;23.40;21.00;;;;;17.02;74.18;101331.47;4965515;28;45375;-56
2022/09/11 07:36:13;;;;;;;;;32.20;26.80;;;;;17.15;74.52;101350.66;4989227;28;45735;-55
2022/09/11 07:38:46;;;;;;;;;29.20;23.80;;;;;17.18;74.50;101350.16;4976101;28;45840;-55
2022/09/11 07:41:12;;;;;;;;;23.00;22.80;;;;;17.20;74.13;101349.91;4993695;28;45924;-56
2022/09/11 07:43:39;;;;;;;;;24.40;21.80;;;;;17.02;73.98;101310.13;4992440;28;45410;-56
2022/09/11 07:46:05;;;;;;;;;26.80;23.00;;;;;17.25;74.50;101343.66;4993920;28;45529;-56
2022/09/11 07:48:31;;;;;;;;;28.20;23.80;;;;;17.24;74.45;101339.19;4975158;28;46166;-54
2022/09/11 07:51:02;;;;;;;;;21.50;20.25;;;;;17.26;74.25;101337.00;4994081;28;45850;-55
2022/09/11 07:53:31;;;;;;;;;24.20;22.00;;;;;17.19;73.78;101326.06;4993968;28;45508;-53
2022/09/11 07:56:06;;;;;;;;;20.80;20.20;;;;;17.14;73.80;101312.06;4994067;28;45582;-51
2022/09/11 07:58:36;;;;;;;;;21.20;20.40;;;;;17.34;73.07;101340.25;4993335;28;45438;-53
2022/09/11 08:01:04;;;;;;;;;20.00;20.00;;;;;17.33;74.03;101333.03;4991838;28;45550;-53
2022/09/11 08:03:33;;;;;;;;;20.80;20.80;;;;;17.34;73.44;101334.72;4975952;28;45840;-54
2022/09/11 08:06:03;;;;;;;;;22.60;19.00;;;;;17.18;73.56;101305.78;4993616;28;46028;-55
2022/09/11 08:08:28;;;;;;;;;19.80;18.80;;;;;17.27;73.74;101313.72;4993288;28;46098;-54
2022/09/11 08:11:04;;;;;;;;;20.50;19.00;;;;;17.47;73.16;101336.38;4993357;28;45478;-51
2022/09/11 08:13:29;;;;;;;;;22.20;21.00;;;;;17.53;73.01;101350.34;4991923;28;45372;-52
2022/09/11 08:15:55;;;;;;;;;21.25;19.00;;;;;17.57;73.29;101343.25;4976099;28;45563;-54
2022/09/11 08:18:21;;;;;;;;;21.80;18.80;;;;;17.43;72.86;101312.97;4975381;28;45433;-54
2022/09/11 08:20:47;;;;;;;;;18.50;16.50;;;;;17.61;73.14;101339.72;4993305;28;45403;-55
2022/09/11 08:23:13;;;;;;;;;23.50;21.75;;;;;17.51;73.22;101311.78;4991454;28;45612;-54
2022/09/11 08:25:39;;;;;;;;;25.00;23.60;;;;;17.67;72.32;101342.63;5007700;28;45543;-56
2022/09/11 08:28:04;;;;;;;;;21.00;20.50;;;;;17.66;72.66;101344.53;5012969;28;45614;-58
2022/09/11 08:30:30;;;;;;;;;24.50;21.75;;;;;17.20;72.73;101258.41;5013175;28;45605;-54
2022/09/11 08:32:55;;;;;;;;;29.00;25.25;;;;;17.51;72.26;101309.00;4995129;28;45432;-54
2022/09/11 08:35:21;;;;;;;;;25.00;23.25;;;;;17.66;72.57;101330.66;5012858;28;45244;-54
2022/09/11 08:37:46;;;;;;;;;32.00;26.00;;;;;17.76;71.96;101346.69;5025457;28;46231;-55
2022/09/11 08:40:12;;;;;;;;;27.75;24.75;;;;;17.79;72.08;101345.34;5033149;28;45376;-55
2022/09/11 08:42:40;;;;;;;;;30.25;26.75;;;;;17.30;71.33;101268.88;5031430;28;45505;-53
2022/09/11 08:45:06;;;;;;;;;25.80;24.60;;;;;17.89;71.92;101351.13;4982446;28;45597;-52
2022/09/11 08:47:35;;;;;;;;;21.60;21.60;;;;;17.83;71.26;101339.06;5016270;28;46433;-53
2022/09/11 08:50:14;;;;;;;;;24.00;21.00;;;;;17.99;71.09;101351.31;5029469;28;45439;-54
2022/09/11 08:52:41;;;;;;;;;23.20;22.40;;;;;18.07;70.99;101357.59;4986692;28;45518;-54
2022/09/11 08:55:31;;;;;;;;;21.80;21.40;;;;;18.10;70.85;101357.94;5012990;28;45547;-55
2022/09/11 08:58:35;;;;;;;;;26.00;23.00;;;;;18.18;70.92;101355.88;5003319;28;46118;-53
2022/09/11 09:01:04;;;;;;;;;25.00;23.20;;;;;18.03;70.82;101321.13;5008327;28;45553;-56
2022/09/11 09:04:01;;;;;;;;;23.80;20.00;;;;;18.30;70.51;101348.31;5035671;28;45490;-55
2022/09/11 09:06:55;;;;;;;;;27.40;24.20;;;;;18.39;70.49;101360.72;5019826;28;45716;-55
2022/09/11 09:09:30;;;;;;;;;22.40;22.40;;;;;18.44;70.13;101357.19;5035383;28;46081;-56
2022/09/11 09:12:19;;;;;;;;;24.60;19.00;;;;;18.58;70.03;101359.66;5018091;28;45454;-56
2022/09/11 09:15:18;;;;;;;;;21.40;20.40;;;;;18.64;69.38;101361.44;4998134;28;45437;-55
2022/09/11 09:17:59;;;;;;;;;22.20;21.00;;;;;18.70;69.33;101361.25;4997540;28;45463;-52
2022/09/11 09:20:30;;;;;;;;;22.20;19.20;;;;;18.43;68.88;101308.25;4982179;28;47305;-55
2022/09/11 09:22:58;;;;;;;;;22.20;21.20;;;;;18.84;68.64;101358.16;4998441;28;45547;-54
2022/09/11 09:25:23;;;;;;;;;25.40;21.00;;;;;18.87;69.03;101365.13;4967625;28;45722;-55
2022/09/11 09:28:17;;;;;;;;;24.25;18.25;;;;;18.94;68.40;101360.25;4996363;28;45373;-54
2022/09/11 09:30:49;;;;;;;;;22.40;18.60;;;;;18.97;68.52;101362.53;4972295;28;48608;-54
2022/09/11 09:33:31;;;;;;;;;22.80;18.60;;;;;19.01;67.95;101362.84;4946284;28;45939;-53
2022/09/11 09:36:01;;;;;;;;;20.40;20.40;;;;;19.04;67.85;101367.94;4992947;28;45464;-55
2022/09/11 09:38:28;;;;;;;;;21.80;20.60;;;;;19.09;67.45;101366.09;4961320;28;45500;-53
2022/09/11 09:41:09;;;;;;;;;24.20;17.80;;;;;18.95;67.48;101337.75;4995613;28;46312;-54
2022/09/11 09:43:57;;;;;;;;;17.60;17.00;;;;;19.19;67.65;101362.63;4977546;28;45510;-54
2022/09/11 09:46:40;;;;;;;;;17.40;17.00;;;;;19.09;67.28;101332.72;4978878;28;45565;-52
2022/09/11 09:49:11;;;;;;;;;16.60;15.00;;;;;19.33;66.84;101356.69;4960556;28;45466;-54
2022/09/11 09:51:38;;;;;;;;;19.20;17.20;;;;;19.35;66.63;101355.34;5005039;28;45425;-53
2022/09/11 09:54:04;;;;;;;;;16.40;16.20;;;;;19.40;66.66;101364.84;4994860;28;45411;-55
2022/09/11 09:56:30;;;;;;;;;16.40;15.40;;;;;19.37;66.15;101350.34;5012703;28;45445;-53
2022/09/11 09:59:01;;;;;;;;;14.75;14.00;;;;;19.50;66.20;101353.88;4979902;28;45597;-51
2022/09/11 10:01:46;;;;;;;;;17.20;17.20;;;;;19.57;66.06;101362.00;4959884;28;47962;-53
2022/09/11 10:04:22;;;;;;;;;17.00;15.40;;;;;19.43;65.77;101309.50;4969304;28;45632;-55
2022/09/11 10:06:52;;;;;;;;;16.80;16.80;;;;;19.76;65.68;101351.41;4993862;28;45655;-55
2022/09/11 10:09:25;;;;;;;;;17.20;17.20;;;;;19.80;65.40;101348.97;4993757;28;45606;-55
2022/09/11 10:11:56;;;;;;;;;18.60;17.80;;;;;19.86;65.62;101345.97;4977877;28;46846;-56
2022/09/11 10:14:22;;;;;;;;;22.00;19.40;;;;;19.94;64.59;101343.84;4975722;28;45389;-56
2022/09/11 10:16:52;;;;;;;;;22.50;21.50;;;;;19.96;64.38;101350.00;4995608;28;45417;-58
2022/09/11 10:19:45;;;;;;;;;18.80;17.40;;;;;20.01;63.89;101344.50;4994764;28;45400;-56
2022/09/11 10:22:30;;;;;;;;;21.20;21.20;;;;;19.99;64.35;101344.75;4952271;28;46324;-56
2022/09/11 10:25:15;;;;;;;;;20.00;19.00;;;;;20.04;63.84;101347.63;4994226;28;45435;-57
2022/09/11 10:28:02;;;;;;;;;14.20;14.20;;;;;20.01;63.20;101333.38;5015041;28;45540;-58
2022/09/11 10:30:31;;;;;;;;;21.60;18.20;;;;;20.00;63.51;101340.00;5014352;28;45683;-57
2022/09/11 10:33:01;;;;;;;;;19.40;18.20;;;;;20.10;63.09;101342.06;5013836;28;46211;-57
2022/09/11 10:35:28;;;;;;;;;14.60;13.40;;;;;20.19;63.19;101332.16;4997495;28;45992;-57
2022/09/11 10:38:16;;;;;;;;;12.20;12.20;;;;;20.39;62.88;101333.47;4995586;28;45380;-57
2022/09/11 10:40:46;;;;;;;;;12.40;10.60;;;;;20.60;61.04;101334.50;4996991;28;45339;-58
2022/09/11 10:43:35;;;;;;;;;13.20;10.80;;;;;20.72;61.70;101326.78;4996997;28;47707;-58
2022/09/11 10:46:03;;;;;;;;;15.80;14.20;;;;;20.91;60.57;101329.19;5013747;28;45335;-58
2022/09/11 10:48:28;;;;;;;;;15.00;14.00;;;;;20.93;60.28;101312.19;4976478;28;45434;-56
2022/09/11 10:51:04;;;;;;;;;12.25;12.25;;;;;21.03;60.64;101322.56;5021983;28;45424;-57
2022/09/11 10:53:29;;;;;;;;;11.00;10.20;;;;;21.08;60.12;101322.63;5016567;28;45410;-58
2022/09/11 10:55:59;;;;;;;;;11.25;10.25;;;;;20.36;59.91;101206.63;5013999;28;45753;-59
2022/09/11 10:58:27;;;;;;;;;14.20;13.20;;;;;20.99;59.69;101306.34;4996281;28;45506;-57
2022/09/11 11:00:53;;;;;;;;;9.00;9.00;;;;;21.13;60.09;101305.88;4997557;28;45630;-61
2022/09/11 11:03:22;;;;;;;;;10.60;10.60;;;;;21.38;59.21;101302.41;5014145;28;46636;-56
2022/09/11 11:06:06;;;;;;;;;12.00;11.40;;;;;21.24;59.34;101270.50;4997417;28;45472;-54
2022/09/11 11:09:09;;;;;;;;;9.20;9.20;;;;;21.48;59.74;101297.97;4998772;28;45495;-55
2022/09/11 11:11:41;;;;;;;;;12.20;11.60;;;;;21.21;60.00;101268.25;5012567;28;45516;-57
2022/09/11 11:14:31;;;;;;;;;11.80;11.20;;;;;21.25;60.23;101288.94;5015261;28;46748;-56
2022/09/11 11:17:03;;;;;;;;;17.40;15.00;;;;;21.38;60.04;101291.22;5000076;28;45378;-58
2022/09/11 11:20:01;;;;;;;;;13.60;13.60;;;;;21.35;60.05;101282.56;4994192;28;45596;-57
2022/09/11 11:22:53;;;;;;;;;11.80;11.80;;;;;21.56;58.96;101300.22;4961936;28;45776;-56